sensor_id;sensor_type;location;lat;lon;timestamp;P1;durP1;ratioP1;P2;durP2;ratioP2
12267;SDS011;6196;48.398;11.736;2023-11-22T00:01:04;9.53;;;6.53;;
12267;SDS011;6196;48.398;11.736;2023-11-22T00:03:32;11.20;;;6.70;;
12267;SDS011;6196;48.398;11.736;2023-11-22T00:05:59;8.13;;;6.40;;
12267;SDS011;6196;48.398;11.736;2023-11-22T00:08:27;6.53;;;5.83;;
12267;SDS011;6196;48.398;11.736;2023-11-22T00:10:55;9.67;;;6.27;;
12267;SDS011;6196;48.398;11.736;2023-11-22T00:13:23;9.17;;;6.03;;
12267;SDS011;6196;48.398;11.736;2023-11-22T00:15:50;6.33;;;5.70;;
12267;SDS011;6196;48.398;11.736;2023-11-22T00:18:17;8.40;;;5.97;;
12267;SDS011;6196;48.398;11.736;2023-11-22T00:20:44;9.77;;;6.00;;
12267;SDS011;6196;48.398;11.736;2023-11-22T00:23:14;8.27;;;5.83;;
12267;SDS011;6196;48.398;11.736;2023-11-22T00:25:41;9.20;;;6.23;;
12267;SDS011;6196;48.398;11.736;2023-11-22T00:28:08;7.37;;;6.30;;
12267;SDS011;6196;48.398;11.736;2023-11-22T00:30:35;8.70;;;6.27;;
12267;SDS011;6196;48.398;11.736;2023-11-22T00:33:02;7.47;;;6.47;;
12267;SDS011;6196;48.398;11.736;2023-11-22T00:35:31;8.27;;;5.90;;
12267;SDS011;6196;48.398;11.736;2023-11-22T00:37:58;7.53;;;6.70;;
12267;SDS011;6196;48.398;11.736;2023-11-22T00:40:25;7.73;;;6.37;;
12267;SDS011;6196;48.398;11.736;2023-11-22T00:42:52;7.57;;;6.80;;
12267;SDS011;6196;48.398;11.736;2023-11-22T00:45:19;11.07;;;7.67;;
12267;SDS011;6196;48.398;11.736;2023-11-22T00:47:46;9.70;;;7.67;;
12267;SDS011;6196;48.398;11.736;2023-11-22T00:50:13;10.50;;;7.87;;
12267;SDS011;6196;48.398;11.736;2023-11-22T00:52:40;9.47;;;7.57;;
12267;SDS011;6196;48.398;11.736;2023-11-22T00:55:11;8.83;;;7.40;;
12267;SDS011;6196;48.398;11.736;2023-11-22T00:57:38;8.37;;;7.50;;
12267;SDS011;6196;48.398;11.736;2023-11-22T01:00:05;8.90;;;6.87;;
12267;SDS011;6196;48.398;11.736;2023-11-22T01:02:36;8.13;;;6.23;;
12267;SDS011;6196;48.398;11.736;2023-11-22T01:05:07;5.73;;;5.23;;
12267;SDS011;6196;48.398;11.736;2023-11-22T01:07:38;4.07;;;3.67;;
12267;SDS011;6196;48.398;11.736;2023-11-22T01:10:05;3.90;;;3.50;;
12267;SDS011;6196;48.398;11.736;2023-11-22T01:12:33;3.40;;;3.10;;
12267;SDS011;6196;48.398;11.736;2023-11-22T01:15:00;2.50;;;2.30;;
12267;SDS011;6196;48.398;11.736;2023-11-22T01:17:27;2.80;;;2.30;;
12267;SDS011;6196;48.398;11.736;2023-11-22T01:19:54;2.30;;;2.10;;
12267;SDS011;6196;48.398;11.736;2023-11-22T01:22:21;2.43;;;2.20;;
12267;SDS011;6196;48.398;11.736;2023-11-22T01:24:48;2.17;;;1.97;;
12267;SDS011;6196;48.398;11.736;2023-11-22T01:27:15;2.40;;;2.00;;
12267;SDS011;6196;48.398;11.736;2023-11-22T01:29:42;2.67;;;2.20;;
12267;SDS011;6196;48.398;11.736;2023-11-22T01:32:09;2.20;;;2.00;;
12267;SDS011;6196;48.398;11.736;2023-11-22T01:34:36;2.47;;;2.00;;
12267;SDS011;6196;48.398;11.736;2023-11-22T01:37:03;3.13;;;2.53;;
12267;SDS011;6196;48.398;11.736;2023-11-22T01:39:30;2.53;;;2.33;;
12267;SDS011;6196;48.398;11.736;2023-11-22T01:41:57;2.37;;;1.87;;
12267;SDS011;6196;48.398;11.736;2023-11-22T01:44:25;2.20;;;2.00;;
12267;SDS011;6196;48.398;11.736;2023-11-22T01:46:53;2.87;;;2.47;;
12267;SDS011;6196;48.398;11.736;2023-11-22T01:49:20;2.67;;;2.00;;
12267;SDS011;6196;48.398;11.736;2023-11-22T01:51:48;2.30;;;2.00;;
12267;SDS011;6196;48.398;11.736;2023-11-22T01:54:15;3.10;;;2.40;;
12267;SDS011;6196;48.398;11.736;2023-11-22T01:56:44;2.53;;;2.13;;
12267;SDS011;6196;48.398;11.736;2023-11-22T01:59:11;3.83;;;2.10;;
12267;SDS011;6196;48.398;11.736;2023-11-22T02:01:40;3.10;;;2.20;;
12267;SDS011;6196;48.398;11.736;2023-11-22T02:04:08;2.80;;;2.20;;
12267;SDS011;6196;48.398;11.736;2023-11-22T02:06:39;3.13;;;2.40;;
12267;SDS011;6196;48.398;11.736;2023-11-22T02:09:06;3.63;;;2.20;;
12267;SDS011;6196;48.398;11.736;2023-11-22T02:11:33;3.47;;;2.80;;
12267;SDS011;6196;48.398;11.736;2023-11-22T02:14:00;6.30;;;2.80;;
12267;SDS011;6196;48.398;11.736;2023-11-22T02:16:27;3.33;;;2.57;;
12267;SDS011;6196;48.398;11.736;2023-11-22T02:18:54;3.97;;;2.57;;
12267;SDS011;6196;48.398;11.736;2023-11-22T02:21:21;2.77;;;2.37;;
12267;SDS011;6196;48.398;11.736;2023-11-22T02:23:48;3.57;;;2.73;;
12267;SDS011;6196;48.398;11.736;2023-11-22T02:26:15;3.23;;;2.60;;
12267;SDS011;6196;48.398;11.736;2023-11-22T02:28:44;3.47;;;2.50;;
12267;SDS011;6196;48.398;11.736;2023-11-22T02:31:11;3.80;;;2.77;;
12267;SDS011;6196;48.398;11.736;2023-11-22T02:33:39;3.60;;;2.60;;
12267;SDS011;6196;48.398;11.736;2023-11-22T02:36:06;3.13;;;2.43;;
12267;SDS011;6196;48.398;11.736;2023-11-22T02:38:34;3.97;;;2.60;;
12267;SDS011;6196;48.398;11.736;2023-11-22T02:41:01;5.17;;;2.97;;
12267;SDS011;6196;48.398;11.736;2023-11-22T02:43:30;4.80;;;3.17;;
12267;SDS011;6196;48.398;11.736;2023-11-22T02:45:57;4.73;;;3.03;;
12267;SDS011;6196;48.398;11.736;2023-11-22T02:48:24;3.57;;;2.77;;
12267;SDS011;6196;48.398;11.736;2023-11-22T02:50:51;4.80;;;2.70;;
12267;SDS011;6196;48.398;11.736;2023-11-22T02:53:20;3.63;;;2.50;;
12267;SDS011;6196;48.398;11.736;2023-11-22T02:55:47;3.07;;;2.50;;
12267;SDS011;6196;48.398;11.736;2023-11-22T02:58:15;4.43;;;2.90;;
12267;SDS011;6196;48.398;11.736;2023-11-22T03:00:42;4.77;;;2.67;;
12267;SDS011;6196;48.398;11.736;2023-11-22T03:03:09;4.67;;;3.07;;
12267;SDS011;6196;48.398;11.736;2023-11-22T03:05:38;3.00;;;2.67;;
12267;SDS011;6196;48.398;11.736;2023-11-22T03:08:06;2.47;;;2.23;;
12267;SDS011;6196;48.398;11.736;2023-11-22T03:10:33;3.10;;;2.60;;
12267;SDS011;6196;48.398;11.736;2023-11-22T03:13:01;3.00;;;2.60;;
12267;SDS011;6196;48.398;11.736;2023-11-22T03:15:28;4.07;;;2.33;;
12267;SDS011;6196;48.398;11.736;2023-11-22T03:17:55;3.20;;;1.90;;
12267;SDS011;6196;48.398;11.736;2023-11-22T03:20:22;4.70;;;2.37;;
12267;SDS011;6196;48.398;11.736;2023-11-22T03:22:49;2.53;;;2.10;;
12267;SDS011;6196;48.398;11.736;2023-11-22T03:25:17;3.83;;;2.47;;
12267;SDS011;6196;48.398;11.736;2023-11-22T03:27:44;2.70;;;2.20;;
12267;SDS011;6196;48.398;11.736;2023-11-22T03:30:13;2.77;;;2.33;;
12267;SDS011;6196;48.398;11.736;2023-11-22T03:32:41;3.70;;;2.57;;
12267;SDS011;6196;48.398;11.736;2023-11-22T03:35:10;2.30;;;2.10;;
12267;SDS011;6196;48.398;11.736;2023-11-22T03:37:38;3.53;;;2.50;;
12267;SDS011;6196;48.398;11.736;2023-11-22T03:40:05;2.80;;;2.30;;
12267;SDS011;6196;48.398;11.736;2023-11-22T03:42:35;2.40;;;2.20;;
12267;SDS011;6196;48.398;11.736;2023-11-22T03:45:04;2.50;;;2.00;;
12267;SDS011;6196;48.398;11.736;2023-11-22T03:47:32;2.80;;;2.03;;
12267;SDS011;6196;48.398;11.736;2023-11-22T03:49:59;3.10;;;2.60;;
12267;SDS011;6196;48.398;11.736;2023-11-22T03:52:26;3.30;;;1.90;;
12267;SDS011;6196;48.398;11.736;2023-11-22T03:54:54;2.27;;;1.90;;
12267;SDS011;6196;48.398;11.736;2023-11-22T03:57:21;3.97;;;2.10;;
12267;SDS011;6196;48.398;11.736;2023-11-22T03:59:47;2.40;;;2.00;;
12267;SDS011;6196;48.398;11.736;2023-11-22T04:02:14;2.00;;;1.80;;
12267;SDS011;6196;48.398;11.736;2023-11-22T04:04:42;2.70;;;1.80;;
12267;SDS011;6196;48.398;11.736;2023-11-22T04:07:09;2.30;;;2.10;;
12267;SDS011;6196;48.398;11.736;2023-11-22T04:09:36;3.57;;;2.20;;
12267;SDS011;6196;48.398;11.736;2023-11-22T04:12:03;1.70;;;1.57;;
12267;SDS011;6196;48.398;11.736;2023-11-22T04:14:30;3.87;;;2.23;;
12267;SDS011;6196;48.398;11.736;2023-11-22T04:16:57;2.80;;;2.03;;
12267;SDS011;6196;48.398;11.736;2023-11-22T04:19:25;2.60;;;1.80;;
12267;SDS011;6196;48.398;11.736;2023-11-22T04:21:52;2.30;;;2.10;;
12267;SDS011;6196;48.398;11.736;2023-11-22T04:24:20;2.03;;;1.83;;
12267;SDS011;6196;48.398;11.736;2023-11-22T04:26:47;1.87;;;1.67;;
12267;SDS011;6196;48.398;11.736;2023-11-22T04:29:14;2.07;;;1.87;;
12267;SDS011;6196;48.398;11.736;2023-11-22T04:31:43;2.63;;;1.90;;
12267;SDS011;6196;48.398;11.736;2023-11-22T04:34:10;2.30;;;1.83;;
12267;SDS011;6196;48.398;11.736;2023-11-22T04:36:37;2.07;;;1.80;;
12267;SDS011;6196;48.398;11.736;2023-11-22T04:39:05;2.83;;;1.97;;
12267;SDS011;6196;48.398;11.736;2023-11-22T04:41:33;2.37;;;1.77;;
12267;SDS011;6196;48.398;11.736;2023-11-22T04:44:01;2.00;;;1.77;;
12267;SDS011;6196;48.398;11.736;2023-11-22T04:46:28;1.90;;;1.73;;
12267;SDS011;6196;48.398;11.736;2023-11-22T04:48:55;1.83;;;1.50;;
12267;SDS011;6196;48.398;11.736;2023-11-22T04:51:23;1.60;;;1.50;;
12267;SDS011;6196;48.398;11.736;2023-11-22T04:53:50;1.67;;;1.57;;
12267;SDS011;6196;48.398;11.736;2023-11-22T04:56:17;1.50;;;1.40;;
12267;SDS011;6196;48.398;11.736;2023-11-22T04:58:44;1.43;;;1.33;;
12267;SDS011;6196;48.398;11.736;2023-11-22T05:01:11;1.67;;;1.57;;
12267;SDS011;6196;48.398;11.736;2023-11-22T05:03:40;2.37;;;1.77;;
12267;SDS011;6196;48.398;11.736;2023-11-22T05:06:07;1.57;;;1.43;;
12267;SDS011;6196;48.398;11.736;2023-11-22T05:08:34;1.70;;;1.60;;
12267;SDS011;6196;48.398;11.736;2023-11-22T05:11:01;1.50;;;1.40;;
12267;SDS011;6196;48.398;11.736;2023-11-22T05:13:29;1.50;;;1.30;;
12267;SDS011;6196;48.398;11.736;2023-11-22T05:15:56;1.80;;;1.47;;
12267;SDS011;6196;48.398;11.736;2023-11-22T05:18:23;2.27;;;1.80;;
12267;SDS011;6196;48.398;11.736;2023-11-22T05:20:50;1.87;;;1.67;;
12267;SDS011;6196;48.398;11.736;2023-11-22T05:23:17;2.33;;;1.50;;
12267;SDS011;6196;48.398;11.736;2023-11-22T05:25:44;2.00;;;1.80;;
12267;SDS011;6196;48.398;11.736;2023-11-22T05:28:11;4.00;;;1.90;;
12267;SDS011;6196;48.398;11.736;2023-11-22T05:30:38;5.47;;;2.00;;
12267;SDS011;6196;48.398;11.736;2023-11-22T05:33:06;2.60;;;1.80;;
12267;SDS011;6196;48.398;11.736;2023-11-22T05:35:33;1.90;;;1.70;;
12267;SDS011;6196;48.398;11.736;2023-11-22T05:38:00;2.50;;;1.90;;
12267;SDS011;6196;48.398;11.736;2023-11-22T05:40:28;1.90;;;1.70;;
12267;SDS011;6196;48.398;11.736;2023-11-22T05:42:55;2.37;;;1.73;;
12267;SDS011;6196;48.398;11.736;2023-11-22T05:45:22;4.40;;;2.10;;
12267;SDS011;6196;48.398;11.736;2023-11-22T05:47:50;2.17;;;1.97;;
12267;SDS011;6196;48.398;11.736;2023-11-22T05:50:17;2.43;;;2.13;;
12267;SDS011;6196;48.398;11.736;2023-11-22T05:52:44;3.87;;;2.10;;
12267;SDS011;6196;48.398;11.736;2023-11-22T05:55:11;3.03;;;2.40;;
12267;SDS011;6196;48.398;11.736;2023-11-22T05:57:40;2.97;;;2.50;;
12267;SDS011;6196;48.398;11.736;2023-11-22T06:00:08;3.53;;;2.60;;
12267;SDS011;6196;48.398;11.736;2023-11-22T06:02:36;4.93;;;3.47;;
12267;SDS011;6196;48.398;11.736;2023-11-22T06:05:05;5.07;;;2.80;;
12267;SDS011;6196;48.398;11.736;2023-11-22T06:07:33;4.40;;;2.90;;
12267;SDS011;6196;48.398;11.736;2023-11-22T06:10:00;3.00;;;2.70;;
12267;SDS011;6196;48.398;11.736;2023-11-22T06:12:28;2.90;;;2.60;;
12267;SDS011;6196;48.398;11.736;2023-11-22T06:14:55;3.43;;;2.67;;
12267;SDS011;6196;48.398;11.736;2023-11-22T06:17:23;3.63;;;3.00;;
12267;SDS011;6196;48.398;11.736;2023-11-22T06:19:50;4.50;;;2.87;;
12267;SDS011;6196;48.398;11.736;2023-11-22T06:22:17;4.03;;;3.30;;
12267;SDS011;6196;48.398;11.736;2023-11-22T06:24:45;3.03;;;2.73;;
12267;SDS011;6196;48.398;11.736;2023-11-22T06:27:14;3.93;;;3.27;;
12267;SDS011;6196;48.398;11.736;2023-11-22T06:29:41;4.57;;;2.83;;
12267;SDS011;6196;48.398;11.736;2023-11-22T06:32:11;3.97;;;3.20;;
12267;SDS011;6196;48.398;11.736;2023-11-22T06:34:38;4.33;;;3.50;;
12267;SDS011;6196;48.398;11.736;2023-11-22T06:37:06;4.17;;;3.27;;
12267;SDS011;6196;48.398;11.736;2023-11-22T06:39:34;4.17;;;3.40;;
12267;SDS011;6196;48.398;11.736;2023-11-22T06:42:01;3.67;;;3.30;;
12267;SDS011;6196;48.398;11.736;2023-11-22T06:44:28;4.20;;;3.60;;
12267;SDS011;6196;48.398;11.736;2023-11-22T06:46:56;5.23;;;3.73;;
12267;SDS011;6196;48.398;11.736;2023-11-22T06:49:23;4.17;;;3.73;;
12267;SDS011;6196;48.398;11.736;2023-11-22T06:51:50;4.63;;;3.50;;
12267;SDS011;6196;48.398;11.736;2023-11-22T06:54:19;4.10;;;3.47;;
12267;SDS011;6196;48.398;11.736;2023-11-22T06:56:46;4.00;;;3.47;;
12267;SDS011;6196;48.398;11.736;2023-11-22T06:59:14;4.23;;;3.67;;
12267;SDS011;6196;48.398;11.736;2023-11-22T07:01:41;4.73;;;4.10;;
12267;SDS011;6196;48.398;11.736;2023-11-22T07:04:08;5.07;;;3.90;;
12267;SDS011;6196;48.398;11.736;2023-11-22T07:06:36;5.00;;;3.37;;
12267;SDS011;6196;48.398;11.736;2023-11-22T07:09:06;4.60;;;3.40;;
12267;SDS011;6196;48.398;11.736;2023-11-22T07:11:36;4.57;;;4.03;;
12267;SDS011;6196;48.398;11.736;2023-11-22T07:14:03;6.13;;;4.40;;
12267;SDS011;6196;48.398;11.736;2023-11-22T07:16:31;4.97;;;4.07;;
12267;SDS011;6196;48.398;11.736;2023-11-22T07:19:00;4.77;;;3.60;;
12267;SDS011;6196;48.398;11.736;2023-11-22T07:21:33;4.60;;;3.60;;
12267;SDS011;6196;48.398;11.736;2023-11-22T07:24:04;6.83;;;3.80;;
12267;SDS011;6196;48.398;11.736;2023-11-22T07:26:33;4.70;;;3.80;;
12267;SDS011;6196;48.398;11.736;2023-11-22T07:29:00;4.03;;;3.40;;
12267;SDS011;6196;48.398;11.736;2023-11-22T07:31:26;4.70;;;3.90;;
12267;SDS011;6196;48.398;11.736;2023-11-22T07:33:55;4.30;;;3.70;;
12267;SDS011;6196;48.398;11.736;2023-11-22T07:36:22;4.73;;;3.53;;
12267;SDS011;6196;48.398;11.736;2023-11-22T07:38:49;4.23;;;3.67;;
12267;SDS011;6196;48.398;11.736;2023-11-22T07:41:16;4.10;;;3.70;;
12267;SDS011;6196;48.398;11.736;2023-11-22T07:43:43;4.30;;;3.77;;
12267;SDS011;6196;48.398;11.736;2023-11-22T07:46:10;4.13;;;3.50;;
12267;SDS011;6196;48.398;11.736;2023-11-22T07:48:40;4.73;;;3.53;;
12267;SDS011;6196;48.398;11.736;2023-11-22T07:51:08;3.60;;;3.23;;
12267;SDS011;6196;48.398;11.736;2023-11-22T07:53:35;4.37;;;3.57;;
12267;SDS011;6196;48.398;11.736;2023-11-22T07:56:02;4.00;;;3.60;;
12267;SDS011;6196;48.398;11.736;2023-11-22T07:58:30;4.20;;;3.20;;
12267;SDS011;6196;48.398;11.736;2023-11-22T08:00:58;6.27;;;3.10;;
12267;SDS011;6196;48.398;11.736;2023-11-22T08:03:26;4.43;;;3.00;;
12267;SDS011;6196;48.398;11.736;2023-11-22T08:05:53;4.60;;;2.77;;
12267;SDS011;6196;48.398;11.736;2023-11-22T08:08:22;3.27;;;2.93;;
12267;SDS011;6196;48.398;11.736;2023-11-22T08:10:49;4.83;;;3.80;;
12267;SDS011;6196;48.398;11.736;2023-11-22T08:13:20;4.57;;;3.40;;
12267;SDS011;6196;48.398;11.736;2023-11-22T08:15:50;4.30;;;3.50;;
12267;SDS011;6196;48.398;11.736;2023-11-22T08:18:17;4.60;;;3.60;;
12267;SDS011;6196;48.398;11.736;2023-11-22T08:20:44;4.17;;;3.57;;
12267;SDS011;6196;48.398;11.736;2023-11-22T08:23:12;4.03;;;2.80;;
12267;SDS011;6196;48.398;11.736;2023-11-22T08:25:41;4.97;;;3.03;;
12267;SDS011;6196;48.398;11.736;2023-11-22T08:28:10;3.77;;;3.23;;
12267;SDS011;6196;48.398;11.736;2023-11-22T08:30:37;3.70;;;3.30;;
12267;SDS011;6196;48.398;11.736;2023-11-22T08:33:07;3.87;;;3.40;;
12267;SDS011;6196;48.398;11.736;2023-11-22T08:35:34;4.07;;;3.23;;
12267;SDS011;6196;48.398;11.736;2023-11-22T08:38:01;4.87;;;3.70;;
12267;SDS011;6196;48.398;11.736;2023-11-22T08:40:30;3.80;;;3.00;;
12267;SDS011;6196;48.398;11.736;2023-11-22T08:42:56;4.70;;;3.37;;
12267;SDS011;6196;48.398;11.736;2023-11-22T08:45:24;3.30;;;3.00;;
12267;SDS011;6196;48.398;11.736;2023-11-22T08:47:51;4.37;;;3.37;;
12267;SDS011;6196;48.398;11.736;2023-11-22T08:50:18;3.50;;;3.20;;
12267;SDS011;6196;48.398;11.736;2023-11-22T08:52:46;4.37;;;3.27;;
12267;SDS011;6196;48.398;11.736;2023-11-22T08:55:13;4.40;;;3.40;;
12267;SDS011;6196;48.398;11.736;2023-11-22T08:57:41;5.03;;;3.30;;
12267;SDS011;6196;48.398;11.736;2023-11-22T09:00:08;4.97;;;3.30;;
12267;SDS011;6196;48.398;11.736;2023-11-22T09:02:37;4.33;;;3.10;;
12267;SDS011;6196;48.398;11.736;2023-11-22T09:05:06;5.47;;;3.40;;
12267;SDS011;6196;48.398;11.736;2023-11-22T09:07:39;4.10;;;3.47;;
12267;SDS011;6196;48.398;11.736;2023-11-22T09:10:06;3.43;;;3.10;;
12267;SDS011;6196;48.398;11.736;2023-11-22T09:12:37;3.53;;;3.03;;
12267;SDS011;6196;48.398;11.736;2023-11-22T09:15:07;3.87;;;3.47;;
12267;SDS011;6196;48.398;11.736;2023-11-22T09:17:39;3.00;;;2.70;;
12267;SDS011;6196;48.398;11.736;2023-11-22T09:20:13;4.53;;;3.50;;
12267;SDS011;6196;48.398;11.736;2023-11-22T09:22:44;4.07;;;3.40;;
12267;SDS011;6196;48.398;11.736;2023-11-22T09:25:16;3.43;;;3.10;;
12267;SDS011;6196;48.398;11.736;2023-11-22T09:27:48;4.37;;;3.10;;
12267;SDS011;6196;48.398;11.736;2023-11-22T09:30:22;3.37;;;2.90;;
12267;SDS011;6196;48.398;11.736;2023-11-22T09:33:06;4.30;;;3.03;;
12267;SDS011;6196;48.398;11.736;2023-11-22T09:35:35;4.47;;;3.20;;
12267;SDS011;6196;48.398;11.736;2023-11-22T09:38:06;3.10;;;2.80;;
12267;SDS011;6196;48.398;11.736;2023-11-22T09:40:40;3.30;;;3.00;;
12267;SDS011;6196;48.398;11.736;2023-11-22T09:43:09;3.70;;;3.00;;
12267;SDS011;6196;48.398;11.736;2023-11-22T09:45:37;3.97;;;2.90;;
12267;SDS011;6196;48.398;11.736;2023-11-22T09:48:11;3.40;;;3.10;;
12267;SDS011;6196;48.398;11.736;2023-11-22T09:51:04;4.03;;;2.70;;
12267;SDS011;6196;48.398;11.736;2023-11-22T09:53:32;4.43;;;3.43;;
12267;SDS011;6196;48.398;11.736;2023-11-22T09:56:09;3.13;;;2.83;;
12267;SDS011;6196;48.398;11.736;2023-11-22T09:58:39;3.80;;;3.40;;
12267;SDS011;6196;48.398;11.736;2023-11-22T10:01:10;3.50;;;3.20;;
12267;SDS011;6196;48.398;11.736;2023-11-22T10:03:39;3.47;;;3.17;;
12267;SDS011;6196;48.398;11.736;2023-11-22T10:06:06;3.43;;;3.13;;
12267;SDS011;6196;48.398;11.736;2023-11-22T10:08:34;3.73;;;3.43;;
12267;SDS011;6196;48.398;11.736;2023-11-22T10:11:03;3.90;;;3.37;;
12267;SDS011;6196;48.398;11.736;2023-11-22T10:13:31;5.10;;;3.40;;
12267;SDS011;6196;48.398;11.736;2023-11-22T10:16:08;6.43;;;4.00;;
12267;SDS011;6196;48.398;11.736;2023-11-22T10:18:45;4.53;;;3.50;;
12267;SDS011;6196;48.398;11.736;2023-11-22T10:21:20;3.17;;;2.87;;
12267;SDS011;6196;48.398;11.736;2023-11-22T10:23:54;3.73;;;3.30;;
12267;SDS011;6196;48.398;11.736;2023-11-22T10:26:24;3.80;;;3.40;;
12267;SDS011;6196;48.398;11.736;2023-11-22T10:28:52;4.10;;;3.70;;
12267;SDS011;6196;48.398;11.736;2023-11-22T10:31:20;4.03;;;3.37;;
12267;SDS011;6196;48.398;11.736;2023-11-22T10:33:48;3.67;;;3.37;;
12267;SDS011;6196;48.398;11.736;2023-11-22T10:36:16;3.67;;;3.10;;
12267;SDS011;6196;48.398;11.736;2023-11-22T10:38:47;4.60;;;3.60;;
12267;SDS011;6196;48.398;11.736;2023-11-22T10:41:15;3.23;;;2.93;;
12267;SDS011;6196;48.398;11.736;2023-11-22T10:43:42;3.23;;;2.93;;
12267;SDS011;6196;48.398;11.736;2023-11-22T10:46:12;3.83;;;3.30;;
12267;SDS011;6196;48.398;11.736;2023-11-22T10:48:40;4.67;;;3.50;;
12267;SDS011;6196;48.398;11.736;2023-11-22T10:51:10;3.73;;;3.33;;
12267;SDS011;6196;48.398;11.736;2023-11-22T10:53:43;3.40;;;3.00;;
12267;SDS011;6196;48.398;11.736;2023-11-22T10:56:16;3.53;;;3.23;;
12267;SDS011;6196;48.398;11.736;2023-11-22T10:58:49;4.23;;;2.97;;
12267;SDS011;6196;48.398;11.736;2023-11-22T11:01:19;4.67;;;3.83;;
12267;SDS011;6196;48.398;11.736;2023-11-22T11:03:54;3.00;;;2.70;;
12267;SDS011;6196;48.398;11.736;2023-11-22T11:06:28;3.17;;;2.87;;
12267;SDS011;6196;48.398;11.736;2023-11-22T11:09:03;2.70;;;2.50;;
12267;SDS011;6196;48.398;11.736;2023-11-22T11:11:33;3.60;;;3.23;;
12267;SDS011;6196;48.398;11.736;2023-11-22T11:14:02;3.50;;;3.00;;
12267;SDS011;6196;48.398;11.736;2023-11-22T11:16:32;3.90;;;3.10;;
12267;SDS011;6196;48.398;11.736;2023-11-22T11:19:04;3.60;;;3.30;;
12267;SDS011;6196;48.398;11.736;2023-11-22T11:21:33;4.30;;;3.60;;
12267;SDS011;6196;48.398;11.736;2023-11-22T11:24:00;4.87;;;3.17;;
12267;SDS011;6196;48.398;11.736;2023-11-22T11:26:34;3.93;;;3.40;;
12267;SDS011;6196;48.398;11.736;2023-11-22T11:29:01;3.13;;;2.83;;
12267;SDS011;6196;48.398;11.736;2023-11-22T11:31:33;3.30;;;3.00;;
12267;SDS011;6196;48.398;11.736;2023-11-22T11:34:06;3.40;;;2.87;;
12267;SDS011;6196;48.398;11.736;2023-11-22T11:36:36;4.20;;;3.17;;
12267;SDS011;6196;48.398;11.736;2023-11-22T11:39:05;3.60;;;3.30;;
12267;SDS011;6196;48.398;11.736;2023-11-22T11:41:40;3.63;;;3.30;;
12267;SDS011;6196;48.398;11.736;2023-11-22T11:44:08;3.40;;;3.10;;
12267;SDS011;6196;48.398;11.736;2023-11-22T11:46:36;3.33;;;3.03;;
12267;SDS011;6196;48.398;11.736;2023-11-22T11:49:07;4.43;;;3.47;;
12267;SDS011;6196;48.398;11.736;2023-11-22T11:51:40;3.47;;;3.17;;
12267;SDS011;6196;48.398;11.736;2023-11-22T11:54:09;3.73;;;3.20;;
12267;SDS011;6196;48.398;11.736;2023-11-22T11:56:39;3.60;;;3.30;;
12267;SDS011;6196;48.398;11.736;2023-11-22T11:59:06;3.37;;;3.07;;
12267;SDS011;6196;48.398;11.736;2023-11-22T12:01:36;3.97;;;3.37;;
12267;SDS011;6196;48.398;11.736;2023-11-22T12:04:03;3.67;;;3.20;;
12267;SDS011;6196;48.398;11.736;2023-11-22T12:06:30;4.70;;;3.13;;
12267;SDS011;6196;48.398;11.736;2023-11-22T12:09:00;3.87;;;3.23;;
12267;SDS011;6196;48.398;11.736;2023-11-22T12:11:27;5.17;;;3.20;;
12267;SDS011;6196;48.398;11.736;2023-11-22T12:13:56;3.23;;;2.93;;
12267;SDS011;6196;48.398;11.736;2023-11-22T12:16:25;4.00;;;3.60;;
12267;SDS011;6196;48.398;11.736;2023-11-22T12:18:53;3.87;;;3.40;;
12267;SDS011;6196;48.398;11.736;2023-11-22T12:21:21;4.63;;;4.00;;
12267;SDS011;6196;48.398;11.736;2023-11-22T12:23:49;4.43;;;4.03;;
12267;SDS011;6196;48.398;11.736;2023-11-22T12:26:20;4.17;;;3.77;;
12267;SDS011;6196;48.398;11.736;2023-11-22T12:28:48;4.77;;;3.90;;
12267;SDS011;6196;48.398;11.736;2023-11-22T12:31:29;5.03;;;4.10;;
12267;SDS011;6196;48.398;11.736;2023-11-22T12:34:02;4.03;;;3.63;;
12267;SDS011;6196;48.398;11.736;2023-11-22T12:36:32;4.37;;;3.97;;
12267;SDS011;6196;48.398;11.736;2023-11-22T12:39:00;4.27;;;3.87;;
12267;SDS011;6196;48.398;11.736;2023-11-22T12:41:30;6.10;;;4.20;;
12267;SDS011;6196;48.398;11.736;2023-11-22T12:44:02;4.33;;;3.90;;
12267;SDS011;6196;48.398;11.736;2023-11-22T12:49:30;4.80;;;3.73;;
12267;SDS011;6196;48.398;11.736;2023-11-22T12:51:58;4.10;;;3.70;;
12267;SDS011;6196;48.398;11.736;2023-11-22T12:54:26;4.70;;;4.07;;
12267;SDS011;6196;48.398;11.736;2023-11-22T12:56:53;5.13;;;4.60;;
12267;SDS011;6196;48.398;11.736;2023-11-22T12:59:25;4.73;;;4.13;;
12267;SDS011;6196;48.398;11.736;2023-11-22T13:01:57;4.73;;;4.33;;
12267;SDS011;6196;48.398;11.736;2023-11-22T13:04:27;4.93;;;4.43;;
12267;SDS011;6196;48.398;11.736;2023-11-22T13:06:57;4.53;;;3.97;;
12267;SDS011;6196;48.398;11.736;2023-11-22T13:09:26;4.30;;;3.90;;
12267;SDS011;6196;48.398;11.736;2023-11-22T13:11:53;4.93;;;4.40;;
12267;SDS011;6196;48.398;11.736;2023-11-22T13:14:20;4.33;;;3.93;;
12267;SDS011;6196;48.398;11.736;2023-11-22T13:16:49;5.77;;;4.80;;
12267;SDS011;6196;48.398;11.736;2023-11-22T13:19:16;5.03;;;4.40;;
12267;SDS011;6196;48.398;11.736;2023-11-22T13:21:43;4.90;;;4.40;;
12267;SDS011;6196;48.398;11.736;2023-11-22T13:24:11;4.30;;;3.80;;
12267;SDS011;6196;48.398;11.736;2023-11-22T13:26:40;4.03;;;3.63;;
12267;SDS011;6196;48.398;11.736;2023-11-22T13:29:07;3.70;;;3.33;;
12267;SDS011;6196;48.398;11.736;2023-11-22T13:31:34;4.30;;;3.60;;
12267;SDS011;6196;48.398;11.736;2023-11-22T13:34:01;4.87;;;3.87;;
12267;SDS011;6196;48.398;11.736;2023-11-22T13:36:28;4.20;;;3.23;;
12267;SDS011;6196;48.398;11.736;2023-11-22T13:38:55;4.37;;;3.23;;
12267;SDS011;6196;48.398;11.736;2023-11-22T13:41:22;3.77;;;3.40;;
12267;SDS011;6196;48.398;11.736;2023-11-22T13:43:51;4.07;;;3.67;;
12267;SDS011;6196;48.398;11.736;2023-11-22T13:46:18;3.63;;;3.13;;
12267;SDS011;6196;48.398;11.736;2023-11-22T13:48:47;4.70;;;3.60;;
12267;SDS011;6196;48.398;11.736;2023-11-22T13:51:13;4.60;;;4.13;;
12267;SDS011;6196;48.398;11.736;2023-11-22T13:53:40;4.90;;;3.77;;
12267;SDS011;6196;48.398;11.736;2023-11-22T13:56:10;3.50;;;3.20;;
12267;SDS011;6196;48.398;11.736;2023-11-22T13:58:39;3.90;;;3.27;;
12267;SDS011;6196;48.398;11.736;2023-11-22T14:01:06;3.40;;;3.10;;
12267;SDS011;6196;48.398;11.736;2023-11-22T14:03:38;2.77;;;2.50;;
12267;SDS011;6196;48.398;11.736;2023-11-22T14:06:06;3.00;;;2.70;;
12267;SDS011;6196;48.398;11.736;2023-11-22T14:08:33;2.70;;;2.50;;
12267;SDS011;6196;48.398;11.736;2023-11-22T14:11:00;4.77;;;3.17;;
12267;SDS011;6196;48.398;11.736;2023-11-22T14:13:27;3.20;;;2.90;;
12267;SDS011;6196;48.398;11.736;2023-11-22T14:15:54;3.17;;;2.30;;
12267;SDS011;6196;48.398;11.736;2023-11-22T14:18:21;3.00;;;2.70;;
12267;SDS011;6196;48.398;11.736;2023-11-22T14:20:48;2.97;;;2.60;;
12267;SDS011;6196;48.398;11.736;2023-11-22T14:23:15;5.07;;;3.27;;
12267;SDS011;6196;48.398;11.736;2023-11-22T14:25:43;4.40;;;3.97;;
12267;SDS011;6196;48.398;11.736;2023-11-22T14:28:10;5.33;;;4.53;;
12267;SDS011;6196;48.398;11.736;2023-11-22T14:30:37;4.87;;;4.10;;
12267;SDS011;6196;48.398;11.736;2023-11-22T14:33:04;4.40;;;4.00;;
12267;SDS011;6196;48.398;11.736;2023-11-22T14:35:34;5.30;;;4.63;;
12267;SDS011;6196;48.398;11.736;2023-11-22T14:38:02;6.27;;;4.23;;
12267;SDS011;6196;48.398;11.736;2023-11-22T14:40:32;4.63;;;4.07;;
12267;SDS011;6196;48.398;11.736;2023-11-22T14:42:59;4.53;;;4.03;;
12267;SDS011;6196;48.398;11.736;2023-11-22T14:45:29;6.03;;;3.90;;
12267;SDS011;6196;48.398;11.736;2023-11-22T14:47:57;5.10;;;4.27;;
12267;SDS011;6196;48.398;11.736;2023-11-22T14:50:25;5.83;;;4.63;;
12267;SDS011;6196;48.398;11.736;2023-11-22T14:52:54;5.43;;;4.33;;
12267;SDS011;6196;48.398;11.736;2023-11-22T14:55:21;5.63;;;4.60;;
12267;SDS011;6196;48.398;11.736;2023-11-22T14:57:51;6.73;;;5.10;;